Аэропорт: Челябинск. Челябинск

ICAO: USCC

METAR:
2019/01/21 23:00
USCC 212300Z 18004MPS 2600 -SHSN SCT006CB BKN016 M09/M13 Q1014 R27/000060 TEMPO 1200 SHSN VV003 RMK QFE741
METAR:
2019/01/21 21:21
TAF TAF USCC 212000Z 2121/2221 20005G10MPS 5000 BR OVC020 
      TEMPO 2121/2124 3100 -SN BR OVC011 
     FM220000 20006MPS 3100 -SHSN BLSN OVC011 BKN020CB 
      TEMPO 2200/2218 20014MPS 1200 SHSN BLSN VV003